createdAt,value
2018-12-18T00:00:10.542Z,99.90
2018-12-18T00:02:37.138Z,99.90
2018-12-18T00:05:05.824Z,99.90
2018-12-18T00:07:32.198Z,99.90
2018-12-18T00:09:58.625Z,99.90
2018-12-18T00:12:25.026Z,99.90
2018-12-18T00:14:51.452Z,99.90
2018-12-18T00:17:17.822Z,99.90
2018-12-18T00:19:44.192Z,99.90
2018-12-18T00:22:10.603Z,99.90
2018-12-18T00:24:36.951Z,99.90
2018-12-18T00:27:03.318Z,99.90
2018-12-18T00:29:29.662Z,99.90
2018-12-18T00:31:56.028Z,99.90
2018-12-18T00:34:22.367Z,99.90
2018-12-18T00:36:48.747Z,99.90
2018-12-18T00:39:15.245Z,99.90
2018-12-18T00:41:41.742Z,99.90
2018-12-18T00:44:08.126Z,99.90
2018-12-18T00:46:34.615Z,99.90
2018-12-18T00:49:01.056Z,99.90
2018-12-18T00:51:27.443Z,99.90
2018-12-18T00:53:53.801Z,99.90
2018-12-18T00:56:20.206Z,99.90
2018-12-18T00:58:46.619Z,99.90
2018-12-18T01:01:13.003Z,99.90
2018-12-18T01:03:39.354Z,99.90
2018-12-18T01:06:05.759Z,99.90
2018-12-18T01:08:32.209Z,99.90
2018-12-18T01:10:58.579Z,99.90
2018-12-18T01:13:24.942Z,99.90
2018-12-18T01:15:51.415Z,99.90
2018-12-18T01:18:17.774Z,99.90
2018-12-18T01:20:44.158Z,99.90
2018-12-18T01:23:10.525Z,99.90
2018-12-18T01:25:36.866Z,99.90
2018-12-18T01:28:03.362Z,99.90
2018-12-18T01:30:29.709Z,99.90
2018-12-18T01:32:56.204Z,99.90
2018-12-18T01:35:22.561Z,99.90
2018-12-18T01:37:55.814Z,99.90
2018-12-18T01:40:22.162Z,99.90
2018-12-18T01:42:48.656Z,99.90
2018-12-18T01:45:15.014Z,99.90
2018-12-18T01:47:41.391Z,99.90
2018-12-18T01:50:08.014Z,99.90
2018-12-18T01:52:34.393Z,99.90
2018-12-18T01:55:02.775Z,99.90
2018-12-18T01:57:36.098Z,99.90
2018-12-18T02:00:03.600Z,99.90
2018-12-18T02:02:29.973Z,99.90
2018-12-18T02:04:56.339Z,99.90
2018-12-18T02:07:22.707Z,99.90
2018-12-18T02:09:49.068Z,99.90
2018-12-18T02:12:15.555Z,99.90
2018-12-18T02:14:42.030Z,99.90
2018-12-18T02:17:08.399Z,99.90
2018-12-18T02:19:34.753Z,99.90
2018-12-18T02:22:01.158Z,99.90
2018-12-18T02:24:27.630Z,99.90
2018-12-18T02:26:53.990Z,99.90
2018-12-18T02:29:20.365Z,99.90
2018-12-18T02:31:46.711Z,99.90
2018-12-18T02:34:13.922Z,99.90
2018-12-18T02:36:40.493Z,99.90
2018-12-18T02:39:06.866Z,99.90
2018-12-18T02:41:33.218Z,99.90
2018-12-18T02:43:59.583Z,99.90
2018-12-18T02:46:25.939Z,99.90
2018-12-18T02:48:52.307Z,99.90
2018-12-18T02:51:18.753Z,99.90
2018-12-18T02:53:45.129Z,99.90
2018-12-18T02:56:11.467Z,99.90
2018-12-18T02:58:37.846Z,99.90
2018-12-18T03:01:04.201Z,99.90
2018-12-18T03:03:30.562Z,99.90
2018-12-18T03:05:56.915Z,99.90
2018-12-18T03:08:23.278Z,99.90
2018-12-18T03:10:49.663Z,99.90
2018-12-18T03:13:16.034Z,99.90
2018-12-18T03:15:42.397Z,99.90
2018-12-18T03:18:08.862Z,99.90
2018-12-18T03:20:35.326Z,99.90
2018-12-18T03:23:01.687Z,99.90
2018-12-18T03:25:28.047Z,99.90
2018-12-18T03:27:54.415Z,99.90
2018-12-18T03:30:20.824Z,99.90
2018-12-18T03:32:47.608Z,99.90
2018-12-18T03:35:13.990Z,99.90
2018-12-18T03:37:40.337Z,99.90
2018-12-18T03:40:06.970Z,99.90
2018-12-18T03:42:33.450Z,99.90
2018-12-18T03:44:59.817Z,99.90
2018-12-18T03:47:26.175Z,99.90
2018-12-18T03:49:52.568Z,99.90
2018-12-18T03:52:19.023Z,99.90
2018-12-18T03:54:45.399Z,99.90
2018-12-18T03:57:11.863Z,99.90
2018-12-18T03:59:38.250Z,99.90
2018-12-18T04:02:04.642Z,99.90
2018-12-18T04:04:35.521Z,99.90
2018-12-18T04:06:59.418Z,99.90
2018-12-18T04:09:25.785Z,99.90
2018-12-18T04:11:58.155Z,99.90
2018-12-18T04:14:24.511Z,99.90
2018-12-18T04:16:57.903Z,99.90
2018-12-18T04:19:24.252Z,99.90
2018-12-18T04:21:50.655Z,99.90
2018-12-18T04:24:17.002Z,99.90
2018-12-18T04:26:43.391Z,99.90
2018-12-18T04:29:09.728Z,99.90
2018-12-18T04:31:36.198Z,99.90
2018-12-18T04:34:02.569Z,99.90
2018-12-18T04:36:28.941Z,99.90
2018-12-18T04:38:55.299Z,99.90
2018-12-18T04:41:21.671Z,99.90
2018-12-18T04:43:48.058Z,99.90
2018-12-18T04:46:21.442Z,99.90
2018-12-18T04:48:47.786Z,99.90
2018-12-18T04:51:14.173Z,99.90
2018-12-18T04:53:40.529Z,99.90
2018-12-18T04:56:06.894Z,99.90
2018-12-18T04:58:33.266Z,99.90
2018-12-18T05:00:59.628Z,99.90
2018-12-18T05:03:26.018Z,99.90
2018-12-18T05:05:52.355Z,99.90
2018-12-18T05:08:18.717Z,99.90
2018-12-18T05:10:45.125Z,99.90
2018-12-18T05:13:11.611Z,99.90
2018-12-18T05:15:37.950Z,99.90
2018-12-18T05:18:04.334Z,99.90
2018-12-18T05:20:30.682Z,99.90
2018-12-18T05:22:57.038Z,99.90
2018-12-18T05:25:23.520Z,99.90
2018-12-18T05:27:49.881Z,99.90
2018-12-18T05:30:16.231Z,99.90
2018-12-18T05:32:42.603Z,99.90
2018-12-18T05:35:09.059Z,99.90
2018-12-18T05:37:35.447Z,99.90
2018-12-18T05:40:02.370Z,99.90
2018-12-18T05:42:36.011Z,99.90
2018-12-18T05:45:02.816Z,99.90
2018-12-18T05:47:29.191Z,99.90
2018-12-18T05:49:55.542Z,99.90
2018-12-18T05:52:21.932Z,99.90
2018-12-18T05:54:48.282Z,99.90
2018-12-18T05:57:14.642Z,99.90
2018-12-18T05:59:40.998Z,99.90
2018-12-18T06:02:07.479Z,99.90
2018-12-18T06:04:33.856Z,99.90
2018-12-18T06:07:00.197Z,99.90
2018-12-18T06:09:26.574Z,99.90
2018-12-18T06:11:53.059Z,99.90
2018-12-18T06:14:19.431Z,99.90
2018-12-18T06:16:45.782Z,99.90
2018-12-18T06:19:12.154Z,99.90
2018-12-18T06:21:38.498Z,99.90
2018-12-18T06:24:05.004Z,99.90
2018-12-18T06:26:31.478Z,99.90
2018-12-18T06:28:57.824Z,99.90
2018-12-18T06:31:25.376Z,99.90
2018-12-18T06:33:51.725Z,99.90
2018-12-18T06:36:18.123Z,99.90
2018-12-18T06:38:44.469Z,99.90
2018-12-18T06:41:11.274Z,99.90
2018-12-18T06:43:37.759Z,99.90
2018-12-18T06:46:04.261Z,99.90
2018-12-18T06:48:30.618Z,99.90
2018-12-18T06:50:57.011Z,99.90
2018-12-18T06:53:23.353Z,99.90
2018-12-18T06:55:49.810Z,99.90
2018-12-18T06:58:16.493Z,99.90
2018-12-18T07:00:42.846Z,99.90
2018-12-18T07:03:09.218Z,99.90
2018-12-18T07:05:35.572Z,99.90
2018-12-18T07:08:01.953Z,99.90
2018-12-18T07:10:28.303Z,99.90
2018-12-18T07:12:54.694Z,99.90
2018-12-18T07:15:21.103Z,99.90
2018-12-18T07:17:47.491Z,99.90
2018-12-18T07:20:13.830Z,99.90
2018-12-18T07:22:40.202Z,99.90
2018-12-18T07:25:06.726Z,99.90
2018-12-18T07:27:33.118Z,99.90
2018-12-18T07:29:59.488Z,99.90
2018-12-18T07:32:25.897Z,99.90
2018-12-18T07:34:52.279Z,99.90
2018-12-18T07:37:18.679Z,99.90
2018-12-18T07:39:45.063Z,99.90
2018-12-18T07:42:11.446Z,99.90
2018-12-18T07:44:37.810Z,99.90
2018-12-18T07:47:04.203Z,99.90
2018-12-18T07:49:30.583Z,99.90
2018-12-18T07:51:56.945Z,99.90
2018-12-18T07:54:23.295Z,99.90
2018-12-18T07:56:49.708Z,99.90
2018-12-18T07:59:16.247Z,99.90
2018-12-18T08:01:42.712Z,99.90
2018-12-18T08:04:09.127Z,99.90
2018-12-18T08:06:35.658Z,99.90
2018-12-18T08:09:02.485Z,99.90
2018-12-18T08:11:28.878Z,99.90
2018-12-18T08:13:55.230Z,99.90
2018-12-18T08:16:21.638Z,99.90
2018-12-18T08:18:48.030Z,99.90
2018-12-18T08:21:14.519Z,99.90
2018-12-18T08:23:40.902Z,99.90
2018-12-18T08:26:07.351Z,99.90
2018-12-18T08:28:33.754Z,99.90
2018-12-18T08:31:00.109Z,99.90
2018-12-18T08:33:26.490Z,99.90
2018-12-18T08:35:52.967Z,99.90
2018-12-18T08:38:19.346Z,99.90
2018-12-18T08:40:45.784Z,99.90
2018-12-18T08:43:12.159Z,99.90
2018-12-18T08:45:38.542Z,99.90
2018-12-18T08:48:04.944Z,99.90
2018-12-18T08:50:31.293Z,99.90
2018-12-18T08:52:57.670Z,99.90
2018-12-18T08:55:31.022Z,99.90
2018-12-18T08:57:57.414Z,99.90
2018-12-18T09:00:23.849Z,99.90
2018-12-18T09:02:50.264Z,99.90
2018-12-18T09:05:16.652Z,99.90
2018-12-18T09:07:43.047Z,99.90
2018-12-18T09:10:09.502Z,99.90
2018-12-18T09:12:35.857Z,99.90
2018-12-18T09:15:04.876Z,99.90
2018-12-18T09:17:50.435Z,99.90
2018-12-18T09:20:16.815Z,99.20
2018-12-18T09:22:43.218Z,98.30
2018-12-18T09:25:16.689Z,97.50
2018-12-18T09:27:43.077Z,97.70
2018-12-18T09:30:09.720Z,98.40
2018-12-18T09:32:36.190Z,97.80
2018-12-18T09:35:03.205Z,99.90
2018-12-18T09:37:29.575Z,99.40
2018-12-18T09:39:55.972Z,98.10
2018-12-18T09:42:28.380Z,92.40
2018-12-18T09:44:54.874Z,90.30
2018-12-18T09:47:28.055Z,87.20
2018-12-18T09:49:54.462Z,89.30
2018-12-18T09:52:20.846Z,90.00
2018-12-18T09:54:47.326Z,82.50
2018-12-18T09:57:19.837Z,71.60
2018-12-18T09:59:46.364Z,64.10
2018-12-18T10:02:12.742Z,63.40
2018-12-18T10:04:39.198Z,61.30
2018-12-18T10:07:05.712Z,56.40
2018-12-18T10:09:32.120Z,60.50
2018-12-18T10:11:58.534Z,60.30
2018-12-18T10:14:24.902Z,58.90
2018-12-18T10:16:51.346Z,64.80
2018-12-18T10:19:17.728Z,59.50
2018-12-18T10:21:44.112Z,62.80
2018-12-18T10:24:10.511Z,68.20
2018-12-18T10:26:36.926Z,67.90
2018-12-18T10:29:03.363Z,63.60
2018-12-18T10:31:29.932Z,57.20
2018-12-18T10:33:56.398Z,57.70
2018-12-18T10:36:22.808Z,59.60
2018-12-18T10:38:49.199Z,57.80
2018-12-18T10:41:15.590Z,54.50
2018-12-18T10:43:41.988Z,60.10
2018-12-18T10:46:15.402Z,63.70
2018-12-18T10:48:41.783Z,67.20
2018-12-18T10:51:09.120Z,66.40
2018-12-18T10:53:35.509Z,66.60
2018-12-18T10:56:01.907Z,73.00
2018-12-18T10:58:28.274Z,75.50
2018-12-18T11:01:00.891Z,79.20
2018-12-18T11:03:27.304Z,80.40
2018-12-18T11:05:53.667Z,83.20
2018-12-18T11:08:20.054Z,83.20
2018-12-18T11:10:46.450Z,83.50
2018-12-18T11:13:15.786Z,89.40
2018-12-18T11:15:42.143Z,89.80
2018-12-18T11:18:08.662Z,89.30
2018-12-18T11:20:35.031Z,88.60
2018-12-18T11:23:01.379Z,92.50
2018-12-18T11:25:27.778Z,94.00
2018-12-18T11:27:54.144Z,92.20
2018-12-18T11:30:20.542Z,91.90
2018-12-18T11:32:46.895Z,90.50
2018-12-18T11:35:13.281Z,92.00
2018-12-18T11:37:39.640Z,93.80
2018-12-18T11:40:07.082Z,92.60
2018-12-18T11:42:33.486Z,90.50
2018-12-18T11:44:59.869Z,91.60
2018-12-18T11:47:26.222Z,91.70
2018-12-18T11:49:52.565Z,93.70
2018-12-18T11:52:18.930Z,92.90
2018-12-18T11:54:45.329Z,93.10
2018-12-18T11:57:11.740Z,92.70
2018-12-18T11:59:38.124Z,90.90
2018-12-18T12:02:04.497Z,90.00
2018-12-18T12:04:30.850Z,91.00
2018-12-18T12:06:57.234Z,91.20
2018-12-18T12:09:23.585Z,90.60
2018-12-18T12:11:49.976Z,90.00
2018-12-18T12:14:16.564Z,90.00
2018-12-18T12:16:42.955Z,91.00
2018-12-18T12:19:09.323Z,92.90
2018-12-18T12:21:35.711Z,91.50
2018-12-18T12:24:02.352Z,90.50
2018-12-18T12:26:32.373Z,90.50
2018-12-18T12:28:59.224Z,90.90
2018-12-18T12:31:25.695Z,88.40
2018-12-18T12:33:52.070Z,88.70
2018-12-18T12:36:18.506Z,90.20
2018-12-18T12:38:44.998Z,92.60
2018-12-18T12:41:11.363Z,94.90
2018-12-18T12:43:37.739Z,95.20
2018-12-18T12:46:04.281Z,97.70
2018-12-18T12:48:36.627Z,94.70
2018-12-18T12:51:02.980Z,96.30
2018-12-18T12:53:29.378Z,98.50
2018-12-18T12:55:55.734Z,99.30
2018-12-18T12:58:22.093Z,99.90
2018-12-18T13:00:48.451Z,99.90
2018-12-18T13:03:14.839Z,99.90
2018-12-18T13:05:41.191Z,99.90
2018-12-18T13:08:07.575Z,99.90
2018-12-18T13:10:34.035Z,99.50
2018-12-18T13:13:00.404Z,99.90
2018-12-18T13:15:26.765Z,99.20
2018-12-18T13:17:53.130Z,99.50
2018-12-18T13:20:19.503Z,99.90
2018-12-18T13:22:45.979Z,99.90
2018-12-18T13:25:13.357Z,99.90
2018-12-18T13:27:39.791Z,99.90
2018-12-18T13:30:06.527Z,99.90
2018-12-18T13:32:32.882Z,99.90
2018-12-18T13:34:59.399Z,99.90
2018-12-18T13:37:25.796Z,99.90
2018-12-18T13:39:52.158Z,99.90
2018-12-18T13:42:18.498Z,99.90
2018-12-18T13:44:44.862Z,99.90
2018-12-18T13:47:11.270Z,99.90
2018-12-18T13:49:37.655Z,99.90
2018-12-18T13:52:11.099Z,99.90
2018-12-18T13:54:37.478Z,99.90
2018-12-18T13:57:03.821Z,99.90
2018-12-18T13:59:30.190Z,99.90
2018-12-18T14:01:56.549Z,99.90
2018-12-18T14:04:29.926Z,99.90
2018-12-18T14:06:56.292Z,99.90
2018-12-18T14:09:22.649Z,99.90
2018-12-18T14:11:48.995Z,99.90
2018-12-18T14:14:15.354Z,99.90
2018-12-18T14:16:41.716Z,99.90
2018-12-18T14:19:08.078Z,99.90
2018-12-18T14:21:34.444Z,99.90
2018-12-18T14:24:00.801Z,99.90
2018-12-18T14:26:27.170Z,99.90
2018-12-18T14:28:53.523Z,99.90
2018-12-18T14:31:19.900Z,99.90
2018-12-18T14:33:46.294Z,99.90
2018-12-18T14:36:12.667Z,99.90
2018-12-18T14:38:39.034Z,99.90
2018-12-18T14:41:05.434Z,99.90
2018-12-18T14:43:31.799Z,99.90
2018-12-18T14:45:58.183Z,99.90
2018-12-18T14:48:24.522Z,99.90
2018-12-18T14:50:50.888Z,99.90
2018-12-18T14:53:17.227Z,99.90
2018-12-18T14:55:43.618Z,99.90
2018-12-18T14:58:09.990Z,99.90
2018-12-18T15:00:36.364Z,99.90
2018-12-18T15:03:02.754Z,99.90
2018-12-18T15:05:29.122Z,99.90
2018-12-18T15:07:55.507Z,99.90
2018-12-18T15:10:21.895Z,99.90
2018-12-18T15:12:48.299Z,99.90
2018-12-18T15:15:14.726Z,99.90
2018-12-18T15:17:48.096Z,99.90
2018-12-18T15:20:14.498Z,99.90
2018-12-18T15:22:40.918Z,99.90
2018-12-18T15:25:07.492Z,99.90
2018-12-18T15:27:33.857Z,99.90
2018-12-18T15:30:00.214Z,99.90
2018-12-18T15:32:26.754Z,99.90
2018-12-18T15:34:53.122Z,99.90
2018-12-18T15:37:19.485Z,99.90
2018-12-18T15:39:45.841Z,99.90
2018-12-18T15:42:12.806Z,99.90
2018-12-18T15:44:39.397Z,99.90
2018-12-18T15:47:05.742Z,99.90
2018-12-18T15:49:32.230Z,99.90
2018-12-18T15:51:58.598Z,99.90
2018-12-18T15:54:24.981Z,99.90
2018-12-18T15:56:51.375Z,99.90
2018-12-18T15:59:17.822Z,99.90
2018-12-18T16:01:44.164Z,99.90
2018-12-18T16:04:10.559Z,99.90
2018-12-18T16:06:36.898Z,99.90
2018-12-18T16:09:06.131Z,99.90
2018-12-18T16:11:32.491Z,99.90
2018-12-18T16:13:58.871Z,99.90
2018-12-18T16:16:25.354Z,99.90
2018-12-18T16:18:51.719Z,99.90
2018-12-18T16:21:18.081Z,99.90
2018-12-18T16:23:44.460Z,99.90
2018-12-18T16:26:10.803Z,99.90
2018-12-18T16:28:37.181Z,99.90
2018-12-18T16:31:03.534Z,99.90
2018-12-18T16:33:29.895Z,99.90
2018-12-18T16:35:56.359Z,99.90
2018-12-18T16:38:22.736Z,99.90
2018-12-18T16:40:49.093Z,99.90
2018-12-18T16:43:15.476Z,99.90
2018-12-18T16:45:41.850Z,99.90
2018-12-18T16:48:08.243Z,99.90
2018-12-18T16:50:34.950Z,99.90
2018-12-18T16:53:01.525Z,99.90
2018-12-18T16:55:27.926Z,99.90
2018-12-18T16:57:54.326Z,99.90
2018-12-18T17:00:20.695Z,99.90
2018-12-18T17:02:47.143Z,99.90
2018-12-18T17:05:13.510Z,99.90
2018-12-18T17:07:39.882Z,99.90
2018-12-18T17:10:06.353Z,99.90
2018-12-18T17:12:32.758Z,99.90
2018-12-18T17:14:59.131Z,99.90
2018-12-18T17:17:25.470Z,99.90
2018-12-18T17:19:51.867Z,99.90
2018-12-18T17:22:18.248Z,99.90
2018-12-18T17:24:44.622Z,99.90
2018-12-18T17:27:10.994Z,99.90
2018-12-18T17:29:37.414Z,99.90
2018-12-18T17:32:03.811Z,99.90
2018-12-18T17:34:30.185Z,99.90
2018-12-18T17:36:56.605Z,99.90
2018-12-18T17:39:23.041Z,99.90
2018-12-18T17:41:49.473Z,99.90
2018-12-18T17:46:48.819Z,99.90
2018-12-18T17:49:15.219Z,99.90
2018-12-18T17:51:41.642Z,99.90
2018-12-18T17:54:08.010Z,99.90
2018-12-18T17:56:34.361Z,99.90
2018-12-18T17:59:00.758Z,99.90
2018-12-18T18:01:27.231Z,99.90
2018-12-18T18:03:53.620Z,99.90
2018-12-18T18:06:19.970Z,99.90
2018-12-18T18:08:46.334Z,99.90
2018-12-18T18:11:12.703Z,99.90
2018-12-18T18:13:39.077Z,99.90
2018-12-18T18:16:05.528Z,99.90
2018-12-18T18:18:31.940Z,99.90
2018-12-18T18:20:58.305Z,99.90
2018-12-18T18:23:24.679Z,99.90
2018-12-18T18:25:51.404Z,99.90
2018-12-18T18:28:17.798Z,99.90
2018-12-18T18:30:44.166Z,99.90
2018-12-18T18:33:10.713Z,99.90
2018-12-18T18:35:37.064Z,99.90
2018-12-18T18:38:03.571Z,99.90
2018-12-18T18:40:29.922Z,99.90
2018-12-18T18:43:03.256Z,99.90
2018-12-18T18:45:29.604Z,99.90
2018-12-18T18:47:55.979Z,99.90
2018-12-18T18:50:22.354Z,99.90
2018-12-18T18:52:55.711Z,99.90
2018-12-18T18:55:22.057Z,99.90
2018-12-18T18:57:48.444Z,99.90
2018-12-18T19:00:14.822Z,99.90
2018-12-18T19:02:41.162Z,99.90
2018-12-18T19:05:07.536Z,99.90
2018-12-18T19:07:33.883Z,99.90
2018-12-18T19:10:00.258Z,99.90
2018-12-18T19:12:26.611Z,99.90
2018-12-18T19:14:53.021Z,99.90
2018-12-18T19:17:19.375Z,99.90
2018-12-18T19:19:45.797Z,99.90
2018-12-18T19:22:12.150Z,99.90
2018-12-18T19:24:38.527Z,99.90
2018-12-18T19:27:04.883Z,99.90
2018-12-18T19:29:31.263Z,99.90
2018-12-18T19:31:57.602Z,99.90
2018-12-18T19:34:23.974Z,99.90
2018-12-18T19:36:50.675Z,99.90
2018-12-18T19:39:17.322Z,99.90
2018-12-18T19:41:43.734Z,99.90
2018-12-18T19:44:10.181Z,99.90
2018-12-18T19:46:36.575Z,99.90
2018-12-18T19:49:03.077Z,99.90
2018-12-18T19:51:29.459Z,99.90
2018-12-18T19:53:55.803Z,99.90
2018-12-18T19:56:22.194Z,99.90
2018-12-18T19:58:48.544Z,99.90
2018-12-18T20:01:15.014Z,99.90
2018-12-18T20:03:41.431Z,99.90
2018-12-18T20:06:07.822Z,99.90
2018-12-18T20:08:34.169Z,99.90
2018-12-18T20:11:00.654Z,99.90
2018-12-18T20:13:27.005Z,99.90
2018-12-18T20:15:53.375Z,99.90
2018-12-18T20:18:19.718Z,99.90
2018-12-18T20:20:46.181Z,99.90
2018-12-18T20:23:12.515Z,99.90
2018-12-18T20:25:38.898Z,99.90
2018-12-18T20:28:05.258Z,99.90
2018-12-18T20:30:31.735Z,99.90
2018-12-18T20:32:58.110Z,99.90
2018-12-18T20:35:24.470Z,99.90
2018-12-18T20:37:50.958Z,99.90
2018-12-18T20:40:17.316Z,99.90
2018-12-18T20:42:43.752Z,99.90
2018-12-18T20:45:10.109Z,99.90
2018-12-18T20:47:36.473Z,99.90
2018-12-18T20:50:04.067Z,99.90
2018-12-18T20:52:37.560Z,99.90
2018-12-18T20:55:03.922Z,99.90
2018-12-18T20:57:30.303Z,99.90
2018-12-18T20:59:56.844Z,99.90
2018-12-18T21:02:23.570Z,99.90
2018-12-18T21:04:49.906Z,99.90
2018-12-18T21:07:23.347Z,99.90
2018-12-18T21:09:49.730Z,99.90
2018-12-18T21:12:16.106Z,99.90
2018-12-18T21:14:42.458Z,99.90
2018-12-18T21:17:08.839Z,99.90
2018-12-18T21:19:35.207Z,99.90
2018-12-18T21:22:01.627Z,99.90
2018-12-18T21:24:28.031Z,99.90
2018-12-18T21:26:54.378Z,99.90
2018-12-18T21:29:20.752Z,99.90
2018-12-18T21:31:47.113Z,99.90
2018-12-18T21:34:13.475Z,99.90
2018-12-18T21:36:39.825Z,99.90
2018-12-18T21:39:13.066Z,99.90
2018-12-18T21:41:39.421Z,99.90
2018-12-18T21:44:05.790Z,99.90
2018-12-18T21:46:32.124Z,99.90
2018-12-18T21:48:58.474Z,99.90
2018-12-18T21:51:24.826Z,99.90
2018-12-18T21:53:51.203Z,99.90
2018-12-18T21:56:17.560Z,99.90
2018-12-18T21:58:43.921Z,99.90
2018-12-18T22:01:10.272Z,99.90
2018-12-18T22:03:36.634Z,99.90
2018-12-18T22:06:02.990Z,99.90
2018-12-18T22:08:29.351Z,99.90
2018-12-18T22:10:55.751Z,99.90
2018-12-18T22:13:22.110Z,99.90
2018-12-18T22:15:48.506Z,99.90
2018-12-18T22:18:14.854Z,99.90
2018-12-18T22:20:41.233Z,99.90
2018-12-18T22:23:07.602Z,99.90
2018-12-18T22:25:34.015Z,99.90
2018-12-18T22:28:00.519Z,99.90
2018-12-18T22:30:26.908Z,99.90
2018-12-18T22:32:53.272Z,99.90
2018-12-18T22:35:19.679Z,99.90
2018-12-18T22:37:46.046Z,99.90
2018-12-18T22:40:12.472Z,99.90
2018-12-18T22:42:38.927Z,99.90
2018-12-18T22:45:05.427Z,99.90
2018-12-18T22:47:31.848Z,99.90
2018-12-18T22:49:58.243Z,99.90
2018-12-18T22:52:24.638Z,99.90
2018-12-18T22:54:51.007Z,99.90
2018-12-18T22:57:24.263Z,99.90
2018-12-18T22:59:50.626Z,99.90
2018-12-18T23:02:17.008Z,99.90
2018-12-18T23:04:43.536Z,99.90
2018-12-18T23:09:43.258Z,99.90
2018-12-18T23:12:09.663Z,99.90
2018-12-18T23:14:36.053Z,99.90
2018-12-18T23:17:02.409Z,99.90
2018-12-18T23:19:28.897Z,99.90
2018-12-18T23:21:55.289Z,99.90
2018-12-18T23:24:21.629Z,99.90
2018-12-18T23:26:48.142Z,99.90
2018-12-18T23:29:14.522Z,99.90
2018-12-18T23:31:40.892Z,99.90
2018-12-18T23:34:07.261Z,99.80
2018-12-18T23:36:33.646Z,99.90
2018-12-18T23:39:00.025Z,99.80
2018-12-18T23:41:26.410Z,99.50
2018-12-18T23:43:52.902Z,98.70
2018-12-18T23:46:19.248Z,98.60
2018-12-18T23:48:45.620Z,97.70
2018-12-18T23:51:12.130Z,97.30
2018-12-18T23:53:38.521Z,97.10
2018-12-18T23:56:04.894Z,97.60
2018-12-18T23:58:31.381Z,97.30
